sensor_id;sensor_type;location;lat;lon;timestamp;temperature;humidity
22984;DHT22;11658;48.908;9.140;2022-08-05T03:01:03;23.40;99.90
22984;DHT22;11658;48.908;9.140;2022-08-05T03:03:30;23.20;99.90
22984;DHT22;11658;48.908;9.140;2022-08-05T03:05:57;23.20;99.90
22984;DHT22;11658;48.908;9.140;2022-08-05T03:08:23;23.10;99.90
22984;DHT22;11658;48.908;9.140;2022-08-05T03:10:49;23.10;99.90
22984;DHT22;11658;48.908;9.140;2022-08-05T03:13:16;23.10;99.90
22984;DHT22;11658;48.908;9.140;2022-08-05T03:15:43;23.20;99.90
22984;DHT22;11658;48.908;9.140;2022-08-05T03:18:09;23.10;99.90
22984;DHT22;11658;48.908;9.140;2022-08-05T03:20:35;23.00;99.90
22984;DHT22;11658;48.908;9.140;2022-08-05T03:23:01;23.00;99.90
22984;DHT22;11658;48.908;9.140;2022-08-05T03:25:29;22.90;99.90
22984;DHT22;11658;48.908;9.140;2022-08-05T03:27:55;23.00;99.90
22984;DHT22;11658;48.908;9.140;2022-08-05T03:30:22;22.90;99.90
22984;DHT22;11658;48.908;9.140;2022-08-05T03:32:49;22.90;99.90
22984;DHT22;11658;48.908;9.140;2022-08-05T03:35:15;22.90;99.90
22984;DHT22;11658;48.908;9.140;2022-08-05T03:37:41;22.90;99.90
22984;DHT22;11658;48.908;9.140;2022-08-05T03:40:07;22.90;99.90
22984;DHT22;11658;48.908;9.140;2022-08-05T03:42:34;22.90;99.90
22984;DHT22;11658;48.908;9.140;2022-08-05T03:45:00;22.90;99.90
22984;DHT22;11658;48.908;9.140;2022-08-05T03:47:26;22.90;99.90
22984;DHT22;11658;48.908;9.140;2022-08-05T03:49:51;22.80;99.90
22984;DHT22;11658;48.908;9.140;2022-08-05T03:52:23;22.80;99.90
22984;DHT22;11658;48.908;9.140;2022-08-05T03:54:59;22.80;99.90
22984;DHT22;11658;48.908;9.140;2022-08-05T03:57:28;22.80;99.90
22984;DHT22;11658;48.908;9.140;2022-08-05T04:00:05;22.70;99.90
22984;DHT22;11658;48.908;9.140;2022-08-05T04:02:34;22.70;99.90
22984;DHT22;11658;48.908;9.140;2022-08-05T04:05:02;22.70;99.90
22984;DHT22;11658;48.908;9.140;2022-08-05T04:07:28;22.80;99.90
22984;DHT22;11658;48.908;9.140;2022-08-05T04:09:55;22.80;99.90
22984;DHT22;11658;48.908;9.140;2022-08-05T04:12:21;22.90;99.90
22984;DHT22;11658;48.908;9.140;2022-08-05T04:14:47;22.90;99.90
22984;DHT22;11658;48.908;9.140;2022-08-05T04:17:13;23.00;99.90
22984;DHT22;11658;48.908;9.140;2022-08-05T04:19:44;23.10;99.90
22984;DHT22;11658;48.908;9.140;2022-08-05T04:22:10;23.00;99.90
22984;DHT22;11658;48.908;9.140;2022-08-05T04:24:40;23.00;99.90
22984;DHT22;11658;48.908;9.140;2022-08-05T04:27:07;23.00;99.90
22984;DHT22;11658;48.908;9.140;2022-08-05T04:29:33;23.00;99.90
22984;DHT22;11658;48.908;9.140;2022-08-05T04:31:58;23.00;99.90
22984;DHT22;11658;48.908;9.140;2022-08-05T04:34:24;23.00;99.90
22984;DHT22;11658;48.908;9.140;2022-08-05T04:36:50;23.00;99.90
22984;DHT22;11658;48.908;9.140;2022-08-05T04:39:19;23.00;99.90
22984;DHT22;11658;48.908;9.140;2022-08-05T04:41:45;23.10;99.90
22984;DHT22;11658;48.908;9.140;2022-08-05T04:44:11;23.10;99.90
22984;DHT22;11658;48.908;9.140;2022-08-05T04:46:37;23.20;99.90
22984;DHT22;11658;48.908;9.140;2022-08-05T04:49:03;23.10;99.90
22984;DHT22;11658;48.908;9.140;2022-08-05T04:51:29;23.10;99.90
22984;DHT22;11658;48.908;9.140;2022-08-05T04:53:54;23.20;99.90
22984;DHT22;11658;48.908;9.140;2022-08-05T04:56:20;23.20;99.90
22984;DHT22;11658;48.908;9.140;2022-08-05T04:58:45;23.20;99.90
22984;DHT22;11658;48.908;9.140;2022-08-05T05:01:11;23.40;99.90
22984;DHT22;11658;48.908;9.140;2022-08-05T05:03:37;24.00;99.90
22984;DHT22;11658;48.908;9.140;2022-08-05T05:06:02;25.00;99.90
22984;DHT22;11658;48.908;9.140;2022-08-05T05:08:28;25.60;99.90
22984;DHT22;11658;48.908;9.140;2022-08-05T05:10:53;26.40;99.90
22984;DHT22;11658;48.908;9.140;2022-08-05T05:13:20;27.10;99.90
22984;DHT22;11658;48.908;9.140;2022-08-05T05:15:46;27.80;99.90
22984;DHT22;11658;48.908;9.140;2022-08-05T05:18:15;28.40;99.90
22984;DHT22;11658;48.908;9.140;2022-08-05T05:20:45;29.20;99.90
22984;DHT22;11658;48.908;9.140;2022-08-05T05:23:11;29.90;99.90
22984;DHT22;11658;48.908;9.140;2022-08-05T05:25:42;30.10;99.90
22984;DHT22;11658;48.908;9.140;2022-08-05T05:28:09;30.30;99.90
22984;DHT22;11658;48.908;9.140;2022-08-05T05:30:38;30.90;99.90
22984;DHT22;11658;48.908;9.140;2022-08-05T05:33:06;31.30;99.90
22984;DHT22;11658;48.908;9.140;2022-08-05T05:35:33;31.40;99.90
22984;DHT22;11658;48.908;9.140;2022-08-05T05:38:00;31.00;99.90
22984;DHT22;11658;48.908;9.140;2022-08-05T05:40:28;30.30;99.90
22984;DHT22;11658;48.908;9.140;2022-08-05T05:42:54;29.30;99.90
22984;DHT22;11658;48.908;9.140;2022-08-05T05:45:20;28.20;99.90
22984;DHT22;11658;48.908;9.140;2022-08-05T05:47:46;27.20;99.90
22984;DHT22;11658;48.908;9.140;2022-08-05T05:50:13;26.40;99.90
22984;DHT22;11658;48.908;9.140;2022-08-05T05:52:40;26.10;99.90
22984;DHT22;11658;48.908;9.140;2022-08-05T05:55:10;25.90;99.90
22984;DHT22;11658;48.908;9.140;2022-08-05T05:57:37;25.80;99.90
22984;DHT22;11658;48.908;9.140;2022-08-05T06:00:05;25.60;99.90
22984;DHT22;11658;48.908;9.140;2022-08-05T06:02:31;25.40;99.90
22984;DHT22;11658;48.908;9.140;2022-08-05T06:04:56;25.30;99.90
22984;DHT22;11658;48.908;9.140;2022-08-05T06:07:22;25.50;99.90
22984;DHT22;11658;48.908;9.140;2022-08-05T06:09:47;25.60;99.90
22984;DHT22;11658;48.908;9.140;2022-08-05T06:12:13;27.10;99.90
22984;DHT22;11658;48.908;9.140;2022-08-05T06:14:38;28.50;99.90
22984;DHT22;11658;48.908;9.140;2022-08-05T06:17:04;28.60;99.90
22984;DHT22;11658;48.908;9.140;2022-08-05T06:19:30;29.10;99.90
22984;DHT22;11658;48.908;9.140;2022-08-05T06:21:55;29.60;99.90
22984;DHT22;11658;48.908;9.140;2022-08-05T06:24:21;29.00;99.90
22984;DHT22;11658;48.908;9.140;2022-08-05T06:26:46;28.90;99.90
22984;DHT22;11658;48.908;9.140;2022-08-05T06:29:12;29.70;99.90
22984;DHT22;11658;48.908;9.140;2022-08-05T06:31:38;29.60;99.90
22984;DHT22;11658;48.908;9.140;2022-08-05T06:34:04;28.80;99.90
22984;DHT22;11658;48.908;9.140;2022-08-05T06:36:30;28.40;99.90
22984;DHT22;11658;48.908;9.140;2022-08-05T06:38:55;28.10;99.90
22984;DHT22;11658;48.908;9.140;2022-08-05T06:41:21;27.70;99.90
22984;DHT22;11658;48.908;9.140;2022-08-05T06:43:47;27.40;99.90
22984;DHT22;11658;48.908;9.140;2022-08-05T06:46:14;27.20;99.90
22984;DHT22;11658;48.908;9.140;2022-08-05T06:48:40;27.20;99.90
22984;DHT22;11658;48.908;9.140;2022-08-05T06:51:05;27.30;99.90
22984;DHT22;11658;48.908;9.140;2022-08-05T06:53:31;27.40;99.90
22984;DHT22;11658;48.908;9.140;2022-08-05T06:55:58;27.20;99.90
22984;DHT22;11658;48.908;9.140;2022-08-05T06:58:24;27.30;99.90
22984;DHT22;11658;48.908;9.140;2022-08-05T07:00:50;27.10;99.90
22984;DHT22;11658;48.908;9.140;2022-08-05T07:03:16;27.10;99.90
22984;DHT22;11658;48.908;9.140;2022-08-05T07:05:41;27.20;99.90
22984;DHT22;11658;48.908;9.140;2022-08-05T07:08:07;27.40;99.90
22984;DHT22;11658;48.908;9.140;2022-08-05T07:10:33;27.30;99.90
22984;DHT22;11658;48.908;9.140;2022-08-05T07:12:58;27.40;99.90
22984;DHT22;11658;48.908;9.140;2022-08-05T07:15:42;27.30;99.90
22984;DHT22;11658;48.908;9.140;2022-08-05T07:18:26;27.10;99.90
22984;DHT22;11658;48.908;9.140;2022-08-05T07:20:52;27.20;99.90
22984;DHT22;11658;48.908;9.140;2022-08-05T07:23:18;27.20;99.90
22984;DHT22;11658;48.908;9.140;2022-08-05T07:25:43;27.20;99.90
22984;DHT22;11658;48.908;9.140;2022-08-05T07:28:09;27.20;99.90
22984;DHT22;11658;48.908;9.140;2022-08-05T07:30:36;27.40;99.90
22984;DHT22;11658;48.908;9.140;2022-08-05T07:33:03;27.80;99.90
22984;DHT22;11658;48.908;9.140;2022-08-05T07:35:29;28.20;99.90
22984;DHT22;11658;48.908;9.140;2022-08-05T07:37:55;28.30;99.90
22984;DHT22;11658;48.908;9.140;2022-08-05T07:40:20;28.00;99.90
22984;DHT22;11658;48.908;9.140;2022-08-05T07:42:47;28.00;99.90
22984;DHT22;11658;48.908;9.140;2022-08-05T07:45:12;27.90;99.90
22984;DHT22;11658;48.908;9.140;2022-08-05T07:47:38;27.60;99.90
22984;DHT22;11658;48.908;9.140;2022-08-05T07:50:04;27.30;99.90
22984;DHT22;11658;48.908;9.140;2022-08-05T07:52:30;27.30;99.90
22984;DHT22;11658;48.908;9.140;2022-08-05T07:54:55;27.20;99.90
22984;DHT22;11658;48.908;9.140;2022-08-05T07:57:21;27.20;99.90
22984;DHT22;11658;48.908;9.140;2022-08-05T07:59:47;27.20;99.90
22984;DHT22;11658;48.908;9.140;2022-08-05T08:02:12;27.30;99.90
22984;DHT22;11658;48.908;9.140;2022-08-05T08:04:38;27.30;99.90
22984;DHT22;11658;48.908;9.140;2022-08-05T08:07:04;27.20;99.90
22984;DHT22;11658;48.908;9.140;2022-08-05T08:09:30;27.10;99.90
22984;DHT22;11658;48.908;9.140;2022-08-05T08:11:56;27.10;99.90
22984;DHT22;11658;48.908;9.140;2022-08-05T08:14:21;27.40;99.90
22984;DHT22;11658;48.908;9.140;2022-08-05T08:16:47;27.40;99.90
22984;DHT22;11658;48.908;9.140;2022-08-05T08:19:12;27.50;99.90
22984;DHT22;11658;48.908;9.140;2022-08-05T08:21:38;27.40;99.90
22984;DHT22;11658;48.908;9.140;2022-08-05T08:24:04;27.30;99.90
22984;DHT22;11658;48.908;9.140;2022-08-05T08:26:30;27.30;99.90
22984;DHT22;11658;48.908;9.140;2022-08-05T08:28:58;27.00;99.90
22984;DHT22;11658;48.908;9.140;2022-08-05T08:31:23;27.20;99.90
22984;DHT22;11658;48.908;9.140;2022-08-05T08:33:49;27.50;99.90
22984;DHT22;11658;48.908;9.140;2022-08-05T08:36:15;27.70;99.90
22984;DHT22;11658;48.908;9.140;2022-08-05T08:38:40;27.50;99.90
22984;DHT22;11658;48.908;9.140;2022-08-05T08:41:07;27.30;99.90
22984;DHT22;11658;48.908;9.140;2022-08-05T08:43:36;27.20;99.90
22984;DHT22;11658;48.908;9.140;2022-08-05T08:46:03;27.40;99.90
22984;DHT22;11658;48.908;9.140;2022-08-05T08:48:30;27.30;99.90
22984;DHT22;11658;48.908;9.140;2022-08-05T08:50:57;27.30;99.90
22984;DHT22;11658;48.908;9.140;2022-08-05T08:53:24;27.40;99.90
22984;DHT22;11658;48.908;9.140;2022-08-05T08:55:51;27.70;99.90
22984;DHT22;11658;48.908;9.140;2022-08-05T08:58:17;27.90;99.90
22984;DHT22;11658;48.908;9.140;2022-08-05T09:00:43;27.90;99.90
22984;DHT22;11658;48.908;9.140;2022-08-05T09:03:10;27.60;99.90
22984;DHT22;11658;48.908;9.140;2022-08-05T09:05:36;27.70;99.90
22984;DHT22;11658;48.908;9.140;2022-08-05T09:08:01;27.90;99.90
22984;DHT22;11658;48.908;9.140;2022-08-05T09:10:27;28.20;99.90
22984;DHT22;11658;48.908;9.140;2022-08-05T09:12:53;28.50;99.90
22984;DHT22;11658;48.908;9.140;2022-08-05T09:15:19;28.50;99.90
22984;DHT22;11658;48.908;9.140;2022-08-05T09:17:45;28.60;99.90
22984;DHT22;11658;48.908;9.140;2022-08-05T09:20:11;28.60;99.90
22984;DHT22;11658;48.908;9.140;2022-08-05T09:23:02;28.90;99.90
22984;DHT22;11658;48.908;9.140;2022-08-05T09:25:29;29.10;99.90
22984;DHT22;11658;48.908;9.140;2022-08-05T09:27:55;29.30;99.90
22984;DHT22;11658;48.908;9.140;2022-08-05T09:30:21;29.30;99.90
22984;DHT22;11658;48.908;9.140;2022-08-05T09:32:46;29.50;99.90
22984;DHT22;11658;48.908;9.140;2022-08-05T09:35:14;29.70;99.90
22984;DHT22;11658;48.908;9.140;2022-08-05T09:37:51;29.80;99.90
22984;DHT22;11658;48.908;9.140;2022-08-05T09:40:36;29.80;99.90
22984;DHT22;11658;48.908;9.140;2022-08-05T09:43:06;29.90;99.90
22984;DHT22;11658;48.908;9.140;2022-08-05T09:45:43;29.70;99.90
22984;DHT22;11658;48.908;9.140;2022-08-05T09:48:29;29.50;99.90
22984;DHT22;11658;48.908;9.140;2022-08-05T09:51:05;29.50;99.90
22984;DHT22;11658;48.908;9.140;2022-08-05T09:53:50;29.60;99.90
22984;DHT22;11658;48.908;9.140;2022-08-05T09:56:29;29.70;99.90
22984;DHT22;11658;48.908;9.140;2022-08-05T09:59:08;28.90;99.90
22984;DHT22;11658;48.908;9.140;2022-08-05T10:01:36;28.80;99.90
22984;DHT22;11658;48.908;9.140;2022-08-05T10:04:05;29.10;99.90
22984;DHT22;11658;48.908;9.140;2022-08-05T10:06:32;29.10;99.90
22984;DHT22;11658;48.908;9.140;2022-08-05T10:09:15;29.20;99.90
22984;DHT22;11658;48.908;9.140;2022-08-05T10:11:42;29.60;99.90
22984;DHT22;11658;48.908;9.140;2022-08-05T10:16:47;29.70;99.90
22984;DHT22;11658;48.908;9.140;2022-08-05T10:19:14;29.70;99.90
22984;DHT22;11658;48.908;9.140;2022-08-05T10:21:40;29.80;99.90
22984;DHT22;11658;48.908;9.140;2022-08-05T10:24:07;30.00;99.90
22984;DHT22;11658;48.908;9.140;2022-08-05T10:26:35;30.30;99.90
22984;DHT22;11658;48.908;9.140;2022-08-05T10:29:00;30.40;99.90
22984;DHT22;11658;48.908;9.140;2022-08-05T10:31:26;30.20;99.90
22984;DHT22;11658;48.908;9.140;2022-08-05T10:33:52;30.00;99.90
22984;DHT22;11658;48.908;9.140;2022-08-05T10:36:18;30.10;99.90
22984;DHT22;11658;48.908;9.140;2022-08-05T10:38:45;30.00;99.90
22984;DHT22;11658;48.908;9.140;2022-08-05T10:41:34;29.80;99.80
22984;DHT22;11658;48.908;9.140;2022-08-05T10:44:15;29.60;99.70
22984;DHT22;11658;48.908;9.140;2022-08-05T10:46:50;29.70;99.80
22984;DHT22;11658;48.908;9.140;2022-08-05T10:49:16;29.80;99.90
22984;DHT22;11658;48.908;9.140;2022-08-05T10:54:12;30.40;99.60
22984;DHT22;11658;48.908;9.140;2022-08-05T10:56:52;30.70;99.70
22984;DHT22;11658;48.908;9.140;2022-08-05T10:59:26;30.70;98.80
22984;DHT22;11658;48.908;9.140;2022-08-05T11:02:09;30.80;98.80
22984;DHT22;11658;48.908;9.140;2022-08-05T11:04:45;30.80;98.40
22984;DHT22;11658;48.908;9.140;2022-08-05T11:07:12;30.70;98.40
22984;DHT22;11658;48.908;9.140;2022-08-05T11:09:52;30.70;98.50
22984;DHT22;11658;48.908;9.140;2022-08-05T11:17:52;31.10;97.60
22984;DHT22;11658;48.908;9.140;2022-08-05T11:36:02;31.60;96.20
22984;DHT22;11658;48.908;9.140;2022-08-05T11:46:39;30.70;96.00
22984;DHT22;11658;48.908;9.140;2022-08-05T11:49:07;30.90;96.00
22984;DHT22;11658;48.908;9.140;2022-08-05T11:51:33;31.10;95.80
22984;DHT22;11658;48.908;9.140;2022-08-05T11:53:59;31.20;95.50
22984;DHT22;11658;48.908;9.140;2022-08-05T11:59:18;31.50;95.80
22984;DHT22;11658;48.908;9.140;2022-08-05T12:01:57;31.80;94.60
22984;DHT22;11658;48.908;9.140;2022-08-05T12:04:25;31.70;94.60
22984;DHT22;11658;48.908;9.140;2022-08-05T12:06:51;31.70;94.60
22984;DHT22;11658;48.908;9.140;2022-08-05T12:09:24;31.60;94.40
22984;DHT22;11658;48.908;9.140;2022-08-05T12:11:51;31.50;94.30
22984;DHT22;11658;48.908;9.140;2022-08-05T12:14:17;31.60;94.10
22984;DHT22;11658;48.908;9.140;2022-08-05T12:16:45;31.60;93.90
22984;DHT22;11658;48.908;9.140;2022-08-05T12:19:15;31.60;93.60
22984;DHT22;11658;48.908;9.140;2022-08-05T12:21:49;31.70;93.30
22984;DHT22;11658;48.908;9.140;2022-08-05T12:24:19;31.70;93.80
22984;DHT22;11658;48.908;9.140;2022-08-05T12:26:53;31.80;93.70
22984;DHT22;11658;48.908;9.140;2022-08-05T12:29:23;31.70;94.10
22984;DHT22;11658;48.908;9.140;2022-08-05T12:34:18;32.00;93.40
22984;DHT22;11658;48.908;9.140;2022-08-05T12:36:44;32.10;93.50
22984;DHT22;11658;48.908;9.140;2022-08-05T12:39:10;32.00;93.10
22984;DHT22;11658;48.908;9.140;2022-08-05T12:41:37;32.00;93.10
22984;DHT22;11658;48.908;9.140;2022-08-05T12:44:08;32.10;92.90
22984;DHT22;11658;48.908;9.140;2022-08-05T12:46:35;32.10;92.60
22984;DHT22;11658;48.908;9.140;2022-08-05T12:49:04;32.10;92.80
22984;DHT22;11658;48.908;9.140;2022-08-05T12:51:30;32.30;93.60
22984;DHT22;11658;48.908;9.140;2022-08-05T12:54:03;32.50;92.30
22984;DHT22;11658;48.908;9.140;2022-08-05T12:56:30;32.30;92.30
22984;DHT22;11658;48.908;9.140;2022-08-05T12:59:17;32.10;92.70
22984;DHT22;11658;48.908;9.140;2022-08-05T13:01:44;31.80;92.50
22984;DHT22;11658;48.908;9.140;2022-08-05T13:04:11;32.30;92.60
22984;DHT22;11658;48.908;9.140;2022-08-05T13:06:41;32.60;91.90
22984;DHT22;11658;48.908;9.140;2022-08-05T13:09:10;32.60;91.90
22984;DHT22;11658;48.908;9.140;2022-08-05T13:11:41;32.80;91.20
22984;DHT22;11658;48.908;9.140;2022-08-05T13:14:25;33.10;91.10
22984;DHT22;11658;48.908;9.140;2022-08-05T13:16:56;33.30;90.90
22984;DHT22;11658;48.908;9.140;2022-08-05T13:19:24;33.60;90.50
22984;DHT22;11658;48.908;9.140;2022-08-05T13:21:51;33.50;90.50
22984;DHT22;11658;48.908;9.140;2022-08-05T13:24:17;33.30;90.40
22984;DHT22;11658;48.908;9.140;2022-08-05T13:26:44;33.30;90.60
22984;DHT22;11658;48.908;9.140;2022-08-05T13:29:10;33.40;90.50
22984;DHT22;11658;48.908;9.140;2022-08-05T13:31:36;33.40;90.40
22984;DHT22;11658;48.908;9.140;2022-08-05T13:34:02;33.70;90.00
22984;DHT22;11658;48.908;9.140;2022-08-05T13:36:27;33.60;90.70
22984;DHT22;11658;48.908;9.140;2022-08-05T13:38:53;33.50;90.80
22984;DHT22;11658;48.908;9.140;2022-08-05T13:41:18;33.70;90.80
22984;DHT22;11658;48.908;9.140;2022-08-05T13:43:44;33.70;90.40
22984;DHT22;11658;48.908;9.140;2022-08-05T13:46:10;33.30;90.50
22984;DHT22;11658;48.908;9.140;2022-08-05T13:48:36;33.30;90.80
22984;DHT22;11658;48.908;9.140;2022-08-05T13:51:10;33.40;90.90
22984;DHT22;11658;48.908;9.140;2022-08-05T13:53:36;33.60;90.20
22984;DHT22;11658;48.908;9.140;2022-08-05T13:56:02;33.30;90.60
22984;DHT22;11658;48.908;9.140;2022-08-05T13:58:28;33.40;90.50
22984;DHT22;11658;48.908;9.140;2022-08-05T14:00:54;33.60;90.70
22984;DHT22;11658;48.908;9.140;2022-08-05T14:03:20;34.10;90.40
22984;DHT22;11658;48.908;9.140;2022-08-05T14:05:46;34.00;90.00
22984;DHT22;11658;48.908;9.140;2022-08-05T14:08:12;34.20;90.10
22984;DHT22;11658;48.908;9.140;2022-08-05T14:10:38;33.80;90.00
22984;DHT22;11658;48.908;9.140;2022-08-05T14:13:06;33.70;90.30
22984;DHT22;11658;48.908;9.140;2022-08-05T14:15:33;33.40;90.00
22984;DHT22;11658;48.908;9.140;2022-08-05T14:17:59;33.00;90.60
22984;DHT22;11658;48.908;9.140;2022-08-05T14:20:25;32.90;90.30
22984;DHT22;11658;48.908;9.140;2022-08-05T14:22:50;32.80;91.00
22984;DHT22;11658;48.908;9.140;2022-08-05T14:25:17;32.70;91.20
22984;DHT22;11658;48.908;9.140;2022-08-05T14:27:45;33.00;92.70
22984;DHT22;11658;48.908;9.140;2022-08-05T14:30:13;33.20;92.30
22984;DHT22;11658;48.908;9.140;2022-08-05T14:32:38;33.50;92.60
22984;DHT22;11658;48.908;9.140;2022-08-05T14:35:05;33.50;92.20
22984;DHT22;11658;48.908;9.140;2022-08-05T14:37:31;33.50;92.50
22984;DHT22;11658;48.908;9.140;2022-08-05T14:39:56;33.60;93.10
22984;DHT22;11658;48.908;9.140;2022-08-05T14:42:22;33.60;93.60
22984;DHT22;11658;48.908;9.140;2022-08-05T14:44:48;33.70;94.20
22984;DHT22;11658;48.908;9.140;2022-08-05T14:47:14;33.80;93.40
22984;DHT22;11658;48.908;9.140;2022-08-05T14:49:39;33.90;93.30
22984;DHT22;11658;48.908;9.140;2022-08-05T14:52:05;33.70;93.20
22984;DHT22;11658;48.908;9.140;2022-08-05T14:54:31;33.50;93.80
22984;DHT22;11658;48.908;9.140;2022-08-05T14:56:58;33.60;94.50
22984;DHT22;11658;48.908;9.140;2022-08-05T14:59:24;33.50;94.40
22984;DHT22;11658;48.908;9.140;2022-08-05T15:01:50;33.00;95.20
22984;DHT22;11658;48.908;9.140;2022-08-05T15:04:17;32.80;95.40
22984;DHT22;11658;48.908;9.140;2022-08-05T15:06:43;32.70;95.40
22984;DHT22;11658;48.908;9.140;2022-08-05T15:09:08;32.80;95.90
22984;DHT22;11658;48.908;9.140;2022-08-05T15:11:35;32.90;95.30
22984;DHT22;11658;48.908;9.140;2022-08-05T15:14:01;32.50;96.00
22984;DHT22;11658;48.908;9.140;2022-08-05T15:16:27;32.50;96.00
22984;DHT22;11658;48.908;9.140;2022-08-05T15:18:53;32.50;96.10
22984;DHT22;11658;48.908;9.140;2022-08-05T15:21:19;32.50;96.50
22984;DHT22;11658;48.908;9.140;2022-08-05T15:23:44;32.70;96.20
22984;DHT22;11658;48.908;9.140;2022-08-05T15:26:10;32.70;95.90
22984;DHT22;11658;48.908;9.140;2022-08-05T15:28:40;32.50;96.00
22984;DHT22;11658;48.908;9.140;2022-08-05T15:31:06;32.60;96.20
22984;DHT22;11658;48.908;9.140;2022-08-05T15:33:31;32.60;96.50
22984;DHT22;11658;48.908;9.140;2022-08-05T15:35:57;32.20;96.60
22984;DHT22;11658;48.908;9.140;2022-08-05T15:38:22;31.90;96.80
22984;DHT22;11658;48.908;9.140;2022-08-05T15:40:48;31.80;97.20
22984;DHT22;11658;48.908;9.140;2022-08-05T15:43:14;31.70;97.10
22984;DHT22;11658;48.908;9.140;2022-08-05T15:45:43;31.80;97.40
22984;DHT22;11658;48.908;9.140;2022-08-05T15:48:09;31.60;97.50
22984;DHT22;11658;48.908;9.140;2022-08-05T15:50:35;31.50;97.50
22984;DHT22;11658;48.908;9.140;2022-08-05T15:53:01;31.30;97.80
22984;DHT22;11658;48.908;9.140;2022-08-05T15:55:26;31.40;97.90
22984;DHT22;11658;48.908;9.140;2022-08-05T15:57:52;31.20;98.00
22984;DHT22;11658;48.908;9.140;2022-08-05T16:00:18;31.00;98.20
22984;DHT22;11658;48.908;9.140;2022-08-05T16:02:44;30.50;98.60
22984;DHT22;11658;48.908;9.140;2022-08-05T16:05:10;30.20;98.80
22984;DHT22;11658;48.908;9.140;2022-08-05T16:07:35;30.10;99.00
22984;DHT22;11658;48.908;9.140;2022-08-05T16:10:01;29.80;99.40
22984;DHT22;11658;48.908;9.140;2022-08-05T16:12:27;29.30;99.90
22984;DHT22;11658;48.908;9.140;2022-08-05T16:14:52;29.40;99.90
22984;DHT22;11658;48.908;9.140;2022-08-05T16:17:18;29.30;99.90
22984;DHT22;11658;48.908;9.140;2022-08-05T16:19:43;29.30;99.90
22984;DHT22;11658;48.908;9.140;2022-08-05T16:22:09;29.50;99.90
22984;DHT22;11658;48.908;9.140;2022-08-05T16:24:35;29.50;99.90
22984;DHT22;11658;48.908;9.140;2022-08-05T16:27:02;29.30;99.90
22984;DHT22;11658;48.908;9.140;2022-08-05T16:29:29;29.50;99.90
22984;DHT22;11658;48.908;9.140;2022-08-05T16:31:55;29.70;99.90
22984;DHT22;11658;48.908;9.140;2022-08-05T16:34:23;30.40;99.80
22984;DHT22;11658;48.908;9.140;2022-08-05T16:36:49;31.50;98.70
22984;DHT22;11658;48.908;9.140;2022-08-05T16:39:15;32.30;97.90
22984;DHT22;11658;48.908;9.140;2022-08-05T16:41:41;33.00;96.80
22984;DHT22;11658;48.908;9.140;2022-08-05T16:44:08;33.20;95.80
22984;DHT22;11658;48.908;9.140;2022-08-05T16:46:35;31.90;96.70
22984;DHT22;11658;48.908;9.140;2022-08-05T16:49:01;31.60;97.10
22984;DHT22;11658;48.908;9.140;2022-08-05T16:51:27;31.40;97.40
22984;DHT22;11658;48.908;9.140;2022-08-05T16:53:53;30.90;97.50
22984;DHT22;11658;48.908;9.140;2022-08-05T16:56:18;30.20;98.70
22984;DHT22;11658;48.908;9.140;2022-08-05T16:58:44;30.50;98.70
22984;DHT22;11658;48.908;9.140;2022-08-05T17:01:09;30.30;98.90
22984;DHT22;11658;48.908;9.140;2022-08-05T17:03:35;30.20;99.10
22984;DHT22;11658;48.908;9.140;2022-08-05T17:06:01;30.30;99.30
22984;DHT22;11658;48.908;9.140;2022-08-05T17:08:27;30.70;98.80
22984;DHT22;11658;48.908;9.140;2022-08-05T17:10:53;30.20;98.90
22984;DHT22;11658;48.908;9.140;2022-08-05T17:13:19;29.60;99.40
22984;DHT22;11658;48.908;9.140;2022-08-05T17:15:45;29.50;99.80
22984;DHT22;11658;48.908;9.140;2022-08-05T17:18:11;29.80;99.70
22984;DHT22;11658;48.908;9.140;2022-08-05T17:20:37;30.70;99.30
22984;DHT22;11658;48.908;9.140;2022-08-05T17:23:02;31.40;97.80
22984;DHT22;11658;48.908;9.140;2022-08-05T17:25:29;31.50;97.70
22984;DHT22;11658;48.908;9.140;2022-08-05T17:27:55;31.60;97.50
22984;DHT22;11658;48.908;9.140;2022-08-05T17:30:21;31.60;97.60
22984;DHT22;11658;48.908;9.140;2022-08-05T17:32:46;31.60;97.50
22984;DHT22;11658;48.908;9.140;2022-08-05T17:35:12;31.30;98.00
22984;DHT22;11658;48.908;9.140;2022-08-05T17:37:38;31.00;98.30
22984;DHT22;11658;48.908;9.140;2022-08-05T17:40:05;30.70;98.60
22984;DHT22;11658;48.908;9.140;2022-08-05T17:42:31;30.00;99.60
22984;DHT22;11658;48.908;9.140;2022-08-05T17:44:56;29.20;99.90
22984;DHT22;11658;48.908;9.140;2022-08-05T17:47:22;28.70;99.90
22984;DHT22;11658;48.908;9.140;2022-08-05T17:49:49;28.50;99.90
22984;DHT22;11658;48.908;9.140;2022-08-05T17:52:15;27.90;99.90
22984;DHT22;11658;48.908;9.140;2022-08-05T17:54:40;27.10;99.90
22984;DHT22;11658;48.908;9.140;2022-08-05T17:57:06;26.60;99.90
22984;DHT22;11658;48.908;9.140;2022-08-05T17:59:32;26.30;99.90
22984;DHT22;11658;48.908;9.140;2022-08-05T18:01:58;26.10;99.90
22984;DHT22;11658;48.908;9.140;2022-08-05T18:04:24;26.10;99.90
22984;DHT22;11658;48.908;9.140;2022-08-05T18:06:49;26.00;99.90
22984;DHT22;11658;48.908;9.140;2022-08-05T18:09:15;25.80;99.90
22984;DHT22;11658;48.908;9.140;2022-08-05T18:11:41;25.60;99.90
22984;DHT22;11658;48.908;9.140;2022-08-05T18:14:06;25.60;99.90
22984;DHT22;11658;48.908;9.140;2022-08-05T18:16:33;25.60;99.90
22984;DHT22;11658;48.908;9.140;2022-08-05T18:18:59;25.60;99.90
22984;DHT22;11658;48.908;9.140;2022-08-05T18:21:25;25.60;99.90
22984;DHT22;11658;48.908;9.140;2022-08-05T18:23:51;25.50;99.90
22984;DHT22;11658;48.908;9.140;2022-08-05T18:26:16;25.30;99.90
22984;DHT22;11658;48.908;9.140;2022-08-05T18:28:42;25.20;99.90
22984;DHT22;11658;48.908;9.140;2022-08-05T18:31:08;24.90;99.90
22984;DHT22;11658;48.908;9.140;2022-08-05T18:33:34;25.00;99.90
22984;DHT22;11658;48.908;9.140;2022-08-05T18:36:00;24.70;99.90
22984;DHT22;11658;48.908;9.140;2022-08-05T18:38:26;24.50;99.90
22984;DHT22;11658;48.908;9.140;2022-08-05T18:40:52;24.40;99.90
22984;DHT22;11658;48.908;9.140;2022-08-05T18:43:17;24.40;99.90
22984;DHT22;11658;48.908;9.140;2022-08-05T18:45:45;24.20;99.90
22984;DHT22;11658;48.908;9.140;2022-08-05T18:48:12;24.10;99.90
22984;DHT22;11658;48.908;9.140;2022-08-05T18:50:37;24.10;99.90
22984;DHT22;11658;48.908;9.140;2022-08-05T18:53:21;24.10;99.90
22984;DHT22;11658;48.908;9.140;2022-08-05T18:55:47;24.00;99.90
22984;DHT22;11658;48.908;9.140;2022-08-05T18:58:12;24.00;99.90
22984;DHT22;11658;48.908;9.140;2022-08-05T19:00:38;24.00;99.90
22984;DHT22;11658;48.908;9.140;2022-08-05T19:03:04;24.00;99.90
22984;DHT22;11658;48.908;9.140;2022-08-05T19:05:29;24.00;99.90
22984;DHT22;11658;48.908;9.140;2022-08-05T19:07:55;23.90;99.90
22984;DHT22;11658;48.908;9.140;2022-08-05T19:10:24;23.80;99.90